sensor_id;sensor_type;location;lat;lon;timestamp;P1;durP1;ratioP1;P2;durP2;ratioP2
5343;SDS011;2694;48.954;8.928;2024-02-21T00:01:58;12.52;;;5.35;;
5343;SDS011;2694;48.954;8.928;2024-02-21T00:04:24;11.98;;;4.50;;
5343;SDS011;2694;48.954;8.928;2024-02-21T00:06:51;11.65;;;4.55;;
5343;SDS011;2694;48.954;8.928;2024-02-21T00:09:19;8.75;;;4.00;;
5343;SDS011;2694;48.954;8.928;2024-02-21T00:11:47;16.30;;;4.73;;
5343;SDS011;2694;48.954;8.928;2024-02-21T00:14:14;10.60;;;4.07;;
5343;SDS011;2694;48.954;8.928;2024-02-21T00:16:42;13.13;;;5.20;;
5343;SDS011;2694;48.954;8.928;2024-02-21T00:19:09;13.75;;;5.10;;
5343;SDS011;2694;48.954;8.928;2024-02-21T00:21:35;32.10;;;9.98;;
5343;SDS011;2694;48.954;8.928;2024-02-21T00:24:02;30.73;;;10.20;;
5343;SDS011;2694;48.954;8.928;2024-02-21T00:26:29;23.52;;;7.30;;
5343;SDS011;2694;48.954;8.928;2024-02-21T00:28:58;14.35;;;5.15;;
5343;SDS011;2694;48.954;8.928;2024-02-21T00:31:24;14.10;;;5.15;;
5343;SDS011;2694;48.954;8.928;2024-02-21T00:33:51;9.27;;;3.80;;
5343;SDS011;2694;48.954;8.928;2024-02-21T00:36:18;6.78;;;3.22;;
5343;SDS011;2694;48.954;8.928;2024-02-21T00:38:45;13.05;;;4.13;;
5343;SDS011;2694;48.954;8.928;2024-02-21T00:41:12;15.10;;;3.85;;
5343;SDS011;2694;48.954;8.928;2024-02-21T00:43:39;10.93;;;3.80;;
5343;SDS011;2694;48.954;8.928;2024-02-21T00:46:09;7.28;;;3.50;;
5343;SDS011;2694;48.954;8.928;2024-02-21T00:48:35;11.40;;;4.00;;
5343;SDS011;2694;48.954;8.928;2024-02-21T00:51:02;9.77;;;4.10;;
5343;SDS011;2694;48.954;8.928;2024-02-21T00:53:31;10.93;;;4.20;;
5343;SDS011;2694;48.954;8.928;2024-02-21T00:55:58;8.65;;;3.75;;
5343;SDS011;2694;48.954;8.928;2024-02-21T00:58:25;13.43;;;4.30;;
5343;SDS011;2694;48.954;8.928;2024-02-21T01:00:52;15.00;;;4.13;;
5343;SDS011;2694;48.954;8.928;2024-02-21T01:03:20;11.77;;;4.40;;
5343;SDS011;2694;48.954;8.928;2024-02-21T01:05:47;14.25;;;4.45;;
5343;SDS011;2694;48.954;8.928;2024-02-21T01:08:14;13.23;;;4.07;;
5343;SDS011;2694;48.954;8.928;2024-02-21T01:10:40;12.70;;;4.40;;
5343;SDS011;2694;48.954;8.928;2024-02-21T01:13:08;13.68;;;4.70;;
5343;SDS011;2694;48.954;8.928;2024-02-21T01:15:35;11.70;;;4.63;;
5343;SDS011;2694;48.954;8.928;2024-02-21T01:18:02;9.50;;;4.13;;
5343;SDS011;2694;48.954;8.928;2024-02-21T01:20:31;10.15;;;4.55;;
5343;SDS011;2694;48.954;8.928;2024-02-21T01:22:58;12.60;;;4.60;;
5343;SDS011;2694;48.954;8.928;2024-02-21T01:25:27;14.15;;;4.47;;
5343;SDS011;2694;48.954;8.928;2024-02-21T01:27:54;19.17;;;4.78;;
5343;SDS011;2694;48.954;8.928;2024-02-21T01:30:21;11.68;;;4.32;;
5343;SDS011;2694;48.954;8.928;2024-02-21T01:32:47;12.40;;;3.55;;
5343;SDS011;2694;48.954;8.928;2024-02-21T01:35:14;13.50;;;4.68;;
5343;SDS011;2694;48.954;8.928;2024-02-21T01:37:44;12.60;;;3.93;;
5343;SDS011;2694;48.954;8.928;2024-02-21T01:40:11;10.10;;;4.15;;
5343;SDS011;2694;48.954;8.928;2024-02-21T01:42:38;11.70;;;4.10;;
5343;SDS011;2694;48.954;8.928;2024-02-21T01:45:08;13.18;;;4.07;;
5343;SDS011;2694;48.954;8.928;2024-02-21T01:47:36;12.93;;;4.22;;
5343;SDS011;2694;48.954;8.928;2024-02-21T01:50:04;10.85;;;3.90;;
5343;SDS011;2694;48.954;8.928;2024-02-21T01:52:33;12.40;;;4.30;;
5343;SDS011;2694;48.954;8.928;2024-02-21T01:55:02;13.57;;;4.30;;
5343;SDS011;2694;48.954;8.928;2024-02-21T01:57:30;14.90;;;3.67;;
5343;SDS011;2694;48.954;8.928;2024-02-21T01:59:57;9.20;;;3.50;;
5343;SDS011;2694;48.954;8.928;2024-02-21T02:02:24;10.77;;;3.70;;
5343;SDS011;2694;48.954;8.928;2024-02-21T02:04:51;10.85;;;3.63;;
5343;SDS011;2694;48.954;8.928;2024-02-21T02:07:18;11.57;;;3.60;;
5343;SDS011;2694;48.954;8.928;2024-02-21T02:09:45;12.03;;;4.30;;
5343;SDS011;2694;48.954;8.928;2024-02-21T02:12:13;9.05;;;3.30;;
5343;SDS011;2694;48.954;8.928;2024-02-21T02:14:40;15.88;;;3.63;;
5343;SDS011;2694;48.954;8.928;2024-02-21T02:17:07;9.85;;;3.42;;
5343;SDS011;2694;48.954;8.928;2024-02-21T02:19:35;10.48;;;3.30;;
5343;SDS011;2694;48.954;8.928;2024-02-21T02:22:03;10.95;;;3.58;;
5343;SDS011;2694;48.954;8.928;2024-02-21T02:24:40;8.88;;;3.40;;
5343;SDS011;2694;48.954;8.928;2024-02-21T02:27:07;9.60;;;3.05;;
5343;SDS011;2694;48.954;8.928;2024-02-21T02:29:34;15.88;;;3.58;;
5343;SDS011;2694;48.954;8.928;2024-02-21T02:32:01;9.50;;;3.03;;
5343;SDS011;2694;48.954;8.928;2024-02-21T02:34:28;13.73;;;3.15;;
5343;SDS011;2694;48.954;8.928;2024-02-21T02:36:55;12.90;;;3.50;;
5343;SDS011;2694;48.954;8.928;2024-02-21T02:39:22;10.60;;;3.40;;
5343;SDS011;2694;48.954;8.928;2024-02-21T02:41:50;10.40;;;3.40;;
5343;SDS011;2694;48.954;8.928;2024-02-21T02:44:17;10.32;;;3.10;;
5343;SDS011;2694;48.954;8.928;2024-02-21T02:46:44;8.27;;;2.90;;
5343;SDS011;2694;48.954;8.928;2024-02-21T02:49:11;6.35;;;2.72;;
5343;SDS011;2694;48.954;8.928;2024-02-21T02:51:41;7.20;;;3.00;;
5343;SDS011;2694;48.954;8.928;2024-02-21T02:54:08;9.13;;;2.60;;
5343;SDS011;2694;48.954;8.928;2024-02-21T02:56:35;11.85;;;2.90;;
5343;SDS011;2694;48.954;8.928;2024-02-21T02:59:03;10.35;;;2.92;;
5343;SDS011;2694;48.954;8.928;2024-02-21T03:01:33;7.97;;;2.30;;
5343;SDS011;2694;48.954;8.928;2024-02-21T03:04:03;8.80;;;3.05;;
5343;SDS011;2694;48.954;8.928;2024-02-21T03:06:30;9.77;;;2.80;;
5343;SDS011;2694;48.954;8.928;2024-02-21T03:08:57;8.30;;;2.85;;
5343;SDS011;2694;48.954;8.928;2024-02-21T03:11:25;9.63;;;2.80;;
5343;SDS011;2694;48.954;8.928;2024-02-21T03:13:54;7.60;;;3.33;;
5343;SDS011;2694;48.954;8.928;2024-02-21T03:16:23;13.90;;;3.30;;
5343;SDS011;2694;48.954;8.928;2024-02-21T03:18:49;8.80;;;2.80;;
5343;SDS011;2694;48.954;8.928;2024-02-21T03:21:18;8.83;;;3.37;;
5343;SDS011;2694;48.954;8.928;2024-02-21T03:23:44;7.82;;;2.70;;
5343;SDS011;2694;48.954;8.928;2024-02-21T03:26:11;11.10;;;3.00;;
5343;SDS011;2694;48.954;8.928;2024-02-21T03:28:42;13.50;;;3.70;;
5343;SDS011;2694;48.954;8.928;2024-02-21T03:31:10;7.10;;;2.83;;
5343;SDS011;2694;48.954;8.928;2024-02-21T03:33:39;9.77;;;3.00;;
5343;SDS011;2694;48.954;8.928;2024-02-21T03:36:08;9.80;;;2.90;;
5343;SDS011;2694;48.954;8.928;2024-02-21T03:38:39;11.90;;;3.05;;
5343;SDS011;2694;48.954;8.928;2024-02-21T03:41:06;7.68;;;2.90;;
5343;SDS011;2694;48.954;8.928;2024-02-21T03:43:33;12.55;;;3.00;;
5343;SDS011;2694;48.954;8.928;2024-02-21T03:45:59;11.27;;;3.10;;
5343;SDS011;2694;48.954;8.928;2024-02-21T03:48:27;14.30;;;3.00;;
5343;SDS011;2694;48.954;8.928;2024-02-21T03:50:55;13.40;;;2.80;;
5343;SDS011;2694;48.954;8.928;2024-02-21T03:53:22;5.13;;;2.40;;
5343;SDS011;2694;48.954;8.928;2024-02-21T03:55:49;11.50;;;3.38;;
5343;SDS011;2694;48.954;8.928;2024-02-21T03:58:17;6.93;;;3.00;;
5343;SDS011;2694;48.954;8.928;2024-02-21T04:00:44;8.75;;;2.50;;
5343;SDS011;2694;48.954;8.928;2024-02-21T04:03:10;10.07;;;3.42;;
5343;SDS011;2694;48.954;8.928;2024-02-21T04:05:37;11.38;;;3.28;;
5343;SDS011;2694;48.954;8.928;2024-02-21T04:08:06;8.63;;;3.03;;
5343;SDS011;2694;48.954;8.928;2024-02-21T04:10:33;8.95;;;2.80;;
5343;SDS011;2694;48.954;8.928;2024-02-21T04:13:00;6.70;;;2.67;;
5343;SDS011;2694;48.954;8.928;2024-02-21T04:15:27;11.77;;;3.20;;
5343;SDS011;2694;48.954;8.928;2024-02-21T04:17:54;12.73;;;2.70;;
5343;SDS011;2694;48.954;8.928;2024-02-21T04:20:23;10.25;;;2.60;;
5343;SDS011;2694;48.954;8.928;2024-02-21T04:22:50;11.90;;;2.78;;
5343;SDS011;2694;48.954;8.928;2024-02-21T04:25:18;8.52;;;2.70;;
5343;SDS011;2694;48.954;8.928;2024-02-21T04:27:45;10.55;;;2.85;;
5343;SDS011;2694;48.954;8.928;2024-02-21T04:30:12;7.85;;;2.60;;
5343;SDS011;2694;48.954;8.928;2024-02-21T04:32:39;10.68;;;2.40;;
5343;SDS011;2694;48.954;8.928;2024-02-21T04:35:06;10.05;;;3.30;;
5343;SDS011;2694;48.954;8.928;2024-02-21T04:37:33;10.25;;;3.28;;
5343;SDS011;2694;48.954;8.928;2024-02-21T04:40:02;12.73;;;3.50;;
5343;SDS011;2694;48.954;8.928;2024-02-21T04:42:31;12.50;;;3.35;;
5343;SDS011;2694;48.954;8.928;2024-02-21T04:44:57;10.55;;;2.92;;
5343;SDS011;2694;48.954;8.928;2024-02-21T04:47:24;8.60;;;3.55;;
5343;SDS011;2694;48.954;8.928;2024-02-21T04:49:51;9.00;;;3.38;;
5343;SDS011;2694;48.954;8.928;2024-02-21T04:52:18;15.55;;;2.88;;
5343;SDS011;2694;48.954;8.928;2024-02-21T04:54:45;9.63;;;3.27;;
5343;SDS011;2694;48.954;8.928;2024-02-21T04:57:12;10.38;;;3.30;;
5343;SDS011;2694;48.954;8.928;2024-02-21T04:59:43;11.75;;;3.28;;
5343;SDS011;2694;48.954;8.928;2024-02-21T05:02:10;8.27;;;2.88;;
5343;SDS011;2694;48.954;8.928;2024-02-21T05:04:37;9.32;;;2.38;;
5343;SDS011;2694;48.954;8.928;2024-02-21T05:07:05;8.23;;;2.60;;
5343;SDS011;2694;48.954;8.928;2024-02-21T05:09:32;7.25;;;2.58;;
5343;SDS011;2694;48.954;8.928;2024-02-21T05:11:58;8.38;;;2.80;;
5343;SDS011;2694;48.954;8.928;2024-02-21T05:14:25;9.95;;;3.22;;
5343;SDS011;2694;48.954;8.928;2024-02-21T05:16:54;8.75;;;2.50;;
5343;SDS011;2694;48.954;8.928;2024-02-21T05:19:21;9.00;;;3.42;;
5343;SDS011;2694;48.954;8.928;2024-02-21T05:21:48;7.15;;;2.75;;
5343;SDS011;2694;48.954;8.928;2024-02-21T05:24:14;8.95;;;3.10;;
5343;SDS011;2694;48.954;8.928;2024-02-21T05:26:41;11.30;;;2.97;;
5343;SDS011;2694;48.954;8.928;2024-02-21T05:29:08;8.82;;;2.80;;
5343;SDS011;2694;48.954;8.928;2024-02-21T05:31:43;7.05;;;2.25;;
5343;SDS011;2694;48.954;8.928;2024-02-21T05:34:23;8.10;;;3.03;;
5343;SDS011;2694;48.954;8.928;2024-02-21T05:36:50;6.32;;;2.75;;
5343;SDS011;2694;48.954;8.928;2024-02-21T05:39:17;7.65;;;2.60;;
5343;SDS011;2694;48.954;8.928;2024-02-21T05:41:44;9.30;;;2.75;;
5343;SDS011;2694;48.954;8.928;2024-02-21T05:44:11;10.02;;;3.53;;
5343;SDS011;2694;48.954;8.928;2024-02-21T05:46:38;8.85;;;2.85;;
5343;SDS011;2694;48.954;8.928;2024-02-21T05:49:06;6.22;;;2.63;;
5343;SDS011;2694;48.954;8.928;2024-02-21T05:51:33;10.25;;;3.40;;
5343;SDS011;2694;48.954;8.928;2024-02-21T05:54:01;8.32;;;2.92;;
5343;SDS011;2694;48.954;8.928;2024-02-21T05:56:28;9.02;;;3.20;;
5343;SDS011;2694;48.954;8.928;2024-02-21T05:58:54;8.55;;;3.50;;
5343;SDS011;2694;48.954;8.928;2024-02-21T06:01:21;9.20;;;3.25;;
5343;SDS011;2694;48.954;8.928;2024-02-21T06:03:49;9.93;;;3.40;;
5343;SDS011;2694;48.954;8.928;2024-02-21T06:06:17;10.07;;;4.00;;
5343;SDS011;2694;48.954;8.928;2024-02-21T06:08:44;10.70;;;3.57;;
5343;SDS011;2694;48.954;8.928;2024-02-21T06:11:11;9.80;;;3.42;;
5343;SDS011;2694;48.954;8.928;2024-02-21T06:13:38;7.78;;;3.67;;
5343;SDS011;2694;48.954;8.928;2024-02-21T06:16:06;12.35;;;4.07;;
5343;SDS011;2694;48.954;8.928;2024-02-21T06:18:34;12.03;;;4.40;;
5343;SDS011;2694;48.954;8.928;2024-02-21T06:21:02;8.10;;;3.80;;
5343;SDS011;2694;48.954;8.928;2024-02-21T06:23:30;9.47;;;3.63;;
5343;SDS011;2694;48.954;8.928;2024-02-21T06:25:57;8.98;;;3.80;;
5343;SDS011;2694;48.954;8.928;2024-02-21T06:28:24;7.72;;;3.15;;
5343;SDS011;2694;48.954;8.928;2024-02-21T06:30:51;11.48;;;3.60;;
5343;SDS011;2694;48.954;8.928;2024-02-21T06:33:18;9.10;;;3.33;;
5343;SDS011;2694;48.954;8.928;2024-02-21T06:35:47;10.13;;;4.00;;
5343;SDS011;2694;48.954;8.928;2024-02-21T06:38:17;11.23;;;3.70;;
5343;SDS011;2694;48.954;8.928;2024-02-21T06:40:45;11.20;;;3.15;;
5343;SDS011;2694;48.954;8.928;2024-02-21T06:43:16;14.70;;;3.55;;
5343;SDS011;2694;48.954;8.928;2024-02-21T06:45:44;10.85;;;3.17;;
5343;SDS011;2694;48.954;8.928;2024-02-21T06:48:12;8.77;;;2.97;;
5343;SDS011;2694;48.954;8.928;2024-02-21T06:50:39;11.10;;;3.22;;
5343;SDS011;2694;48.954;8.928;2024-02-21T06:53:06;12.40;;;2.97;;
5343;SDS011;2694;48.954;8.928;2024-02-21T06:55:33;7.63;;;3.00;;
5343;SDS011;2694;48.954;8.928;2024-02-21T06:58:01;9.90;;;3.53;;
5343;SDS011;2694;48.954;8.928;2024-02-21T07:00:28;11.48;;;3.70;;
5343;SDS011;2694;48.954;8.928;2024-02-21T07:02:55;8.40;;;3.60;;
5343;SDS011;2694;48.954;8.928;2024-02-21T07:05:23;7.80;;;4.15;;
5343;SDS011;2694;48.954;8.928;2024-02-21T07:07:50;11.27;;;3.90;;
5343;SDS011;2694;48.954;8.928;2024-02-21T07:10:17;9.77;;;3.63;;
5343;SDS011;2694;48.954;8.928;2024-02-21T07:12:43;11.55;;;4.30;;
5343;SDS011;2694;48.954;8.928;2024-02-21T07:15:12;12.40;;;3.80;;
5343;SDS011;2694;48.954;8.928;2024-02-21T07:17:38;14.20;;;3.97;;
5343;SDS011;2694;48.954;8.928;2024-02-21T07:20:06;12.73;;;3.58;;
5343;SDS011;2694;48.954;8.928;2024-02-21T07:22:33;11.30;;;3.20;;
5343;SDS011;2694;48.954;8.928;2024-02-21T07:25:01;10.32;;;4.07;;
5343;SDS011;2694;48.954;8.928;2024-02-21T07:27:28;9.35;;;3.88;;
5343;SDS011;2694;48.954;8.928;2024-02-21T07:29:56;7.50;;;3.20;;
5343;SDS011;2694;48.954;8.928;2024-02-21T07:32:24;8.60;;;3.40;;
5343;SDS011;2694;48.954;8.928;2024-02-21T07:34:51;12.82;;;3.92;;
5343;SDS011;2694;48.954;8.928;2024-02-21T07:37:18;8.00;;;3.20;;
5343;SDS011;2694;48.954;8.928;2024-02-21T07:39:45;11.38;;;3.20;;
5343;SDS011;2694;48.954;8.928;2024-02-21T07:42:11;7.00;;;3.20;;
5343;SDS011;2694;48.954;8.928;2024-02-21T07:44:38;9.63;;;3.65;;
5343;SDS011;2694;48.954;8.928;2024-02-21T07:47:05;11.02;;;3.92;;
5343;SDS011;2694;48.954;8.928;2024-02-21T07:49:40;8.85;;;3.95;;
5343;SDS011;2694;48.954;8.928;2024-02-21T07:52:07;11.77;;;4.60;;
5343;SDS011;2694;48.954;8.928;2024-02-21T07:54:34;15.38;;;5.20;;
5343;SDS011;2694;48.954;8.928;2024-02-21T07:57:00;11.25;;;4.20;;
5343;SDS011;2694;48.954;8.928;2024-02-21T07:59:28;8.20;;;3.85;;
5343;SDS011;2694;48.954;8.928;2024-02-21T08:01:56;18.98;;;4.90;;
5343;SDS011;2694;48.954;8.928;2024-02-21T08:04:23;13.07;;;3.88;;
5343;SDS011;2694;48.954;8.928;2024-02-21T08:06:52;7.72;;;3.30;;
5343;SDS011;2694;48.954;8.928;2024-02-21T08:09:20;7.13;;;2.90;;
5343;SDS011;2694;48.954;8.928;2024-02-21T08:11:48;10.70;;;3.20;;
5343;SDS011;2694;48.954;8.928;2024-02-21T08:14:15;6.53;;;2.58;;
5343;SDS011;2694;48.954;8.928;2024-02-21T08:16:42;8.82;;;2.10;;
5343;SDS011;2694;48.954;8.928;2024-02-21T08:19:09;6.30;;;2.50;;
5343;SDS011;2694;48.954;8.928;2024-02-21T08:21:36;8.88;;;2.60;;
5343;SDS011;2694;48.954;8.928;2024-02-21T08:24:05;9.73;;;2.67;;
5343;SDS011;2694;48.954;8.928;2024-02-21T08:26:32;10.20;;;2.53;;
5343;SDS011;2694;48.954;8.928;2024-02-21T08:28:58;6.00;;;2.00;;
5343;SDS011;2694;48.954;8.928;2024-02-21T08:31:26;12.02;;;2.88;;
5343;SDS011;2694;48.954;8.928;2024-02-21T08:33:56;5.70;;;2.30;;
5343;SDS011;2694;48.954;8.928;2024-02-21T08:36:27;8.35;;;2.40;;
5343;SDS011;2694;48.954;8.928;2024-02-21T08:38:54;9.77;;;2.67;;
5343;SDS011;2694;48.954;8.928;2024-02-21T08:41:23;6.20;;;2.30;;
5343;SDS011;2694;48.954;8.928;2024-02-21T08:43:50;9.57;;;2.60;;
5343;SDS011;2694;48.954;8.928;2024-02-21T08:46:17;11.90;;;2.80;;
5343;SDS011;2694;48.954;8.928;2024-02-21T08:48:44;4.70;;;1.83;;
5343;SDS011;2694;48.954;8.928;2024-02-21T08:51:12;4.67;;;2.30;;
5343;SDS011;2694;48.954;8.928;2024-02-21T08:53:39;13.40;;;3.13;;
5343;SDS011;2694;48.954;8.928;2024-02-21T08:56:06;9.80;;;2.10;;
5343;SDS011;2694;48.954;8.928;2024-02-21T08:58:35;13.63;;;3.30;;
5343;SDS011;2694;48.954;8.928;2024-02-21T09:01:03;8.95;;;2.20;;
5343;SDS011;2694;48.954;8.928;2024-02-21T09:03:30;8.52;;;2.53;;
5343;SDS011;2694;48.954;8.928;2024-02-21T09:05:58;6.45;;;2.60;;
5343;SDS011;2694;48.954;8.928;2024-02-21T09:08:25;6.47;;;2.67;;
5343;SDS011;2694;48.954;8.928;2024-02-21T09:10:52;8.15;;;2.50;;
5343;SDS011;2694;48.954;8.928;2024-02-21T09:13:19;8.70;;;2.30;;
5343;SDS011;2694;48.954;8.928;2024-02-21T09:15:48;7.05;;;2.10;;
5343;SDS011;2694;48.954;8.928;2024-02-21T09:18:15;9.80;;;2.20;;
5343;SDS011;2694;48.954;8.928;2024-02-21T09:20:42;12.00;;;2.38;;
5343;SDS011;2694;48.954;8.928;2024-02-21T09:23:09;8.98;;;2.55;;
5343;SDS011;2694;48.954;8.928;2024-02-21T09:25:36;10.57;;;2.10;;
5343;SDS011;2694;48.954;8.928;2024-02-21T09:28:03;13.35;;;3.35;;
5343;SDS011;2694;48.954;8.928;2024-02-21T09:30:32;5.38;;;2.05;;
5343;SDS011;2694;48.954;8.928;2024-02-21T09:33:00;10.20;;;2.37;;
5343;SDS011;2694;48.954;8.928;2024-02-21T09:35:27;13.57;;;2.67;;
5343;SDS011;2694;48.954;8.928;2024-02-21T09:37:54;8.63;;;2.40;;
5343;SDS011;2694;48.954;8.928;2024-02-21T09:40:21;9.85;;;2.30;;
5343;SDS011;2694;48.954;8.928;2024-02-21T09:42:49;8.75;;;2.28;;
5343;SDS011;2694;48.954;8.928;2024-02-21T09:45:25;9.52;;;2.50;;
5343;SDS011;2694;48.954;8.928;2024-02-21T09:47:57;11.13;;;2.63;;
5343;SDS011;2694;48.954;8.928;2024-02-21T09:51:03;11.15;;;2.10;;
5343;SDS011;2694;48.954;8.928;2024-02-21T09:53:31;16.88;;;2.35;;
5343;SDS011;2694;48.954;8.928;2024-02-21T09:56:00;11.35;;;2.40;;
5343;SDS011;2694;48.954;8.928;2024-02-21T09:58:28;10.45;;;2.10;;
5343;SDS011;2694;48.954;8.928;2024-02-21T10:00:55;7.78;;;1.90;;
5343;SDS011;2694;48.954;8.928;2024-02-21T10:03:25;10.68;;;2.05;;
5343;SDS011;2694;48.954;8.928;2024-02-21T10:05:52;7.53;;;2.20;;
5343;SDS011;2694;48.954;8.928;2024-02-21T10:08:20;7.50;;;1.83;;
5343;SDS011;2694;48.954;8.928;2024-02-21T10:10:47;7.10;;;2.70;;
5343;SDS011;2694;48.954;8.928;2024-02-21T10:13:26;8.63;;;1.98;;
5343;SDS011;2694;48.954;8.928;2024-02-21T10:16:00;10.18;;;2.15;;
5343;SDS011;2694;48.954;8.928;2024-02-21T10:18:28;8.40;;;2.30;;
5343;SDS011;2694;48.954;8.928;2024-02-21T10:21:02;6.45;;;2.05;;
5343;SDS011;2694;48.954;8.928;2024-02-21T10:23:40;7.65;;;1.90;;
5343;SDS011;2694;48.954;8.928;2024-02-21T10:26:07;12.57;;;2.33;;
5343;SDS011;2694;48.954;8.928;2024-02-21T10:28:35;10.13;;;2.00;;
5343;SDS011;2694;48.954;8.928;2024-02-21T10:31:03;11.98;;;2.42;;
5343;SDS011;2694;48.954;8.928;2024-02-21T10:33:30;15.63;;;2.28;;
5343;SDS011;2694;48.954;8.928;2024-02-21T10:36:05;9.18;;;2.28;;
5343;SDS011;2694;48.954;8.928;2024-02-21T10:38:35;8.65;;;2.10;;
5343;SDS011;2694;48.954;8.928;2024-02-21T10:41:05;11.32;;;2.13;;
5343;SDS011;2694;48.954;8.928;2024-02-21T10:43:34;9.20;;;1.80;;
5343;SDS011;2694;48.954;8.928;2024-02-21T10:46:06;8.00;;;2.05;;
5343;SDS011;2694;48.954;8.928;2024-02-21T10:48:39;10.15;;;2.10;;
5343;SDS011;2694;48.954;8.928;2024-02-21T10:51:12;7.70;;;1.90;;
5343;SDS011;2694;48.954;8.928;2024-02-21T10:53:47;15.38;;;2.30;;
5343;SDS011;2694;48.954;8.928;2024-02-21T10:56:22;13.52;;;2.08;;
5343;SDS011;2694;48.954;8.928;2024-02-21T10:58:54;11.52;;;2.60;;
5343;SDS011;2694;48.954;8.928;2024-02-21T11:01:22;13.15;;;2.65;;
5343;SDS011;2694;48.954;8.928;2024-02-21T11:03:52;8.30;;;1.80;;
5343;SDS011;2694;48.954;8.928;2024-02-21T11:06:21;11.73;;;2.05;;
5343;SDS011;2694;48.954;8.928;2024-02-21T11:09:00;10.13;;;2.10;;
5343;SDS011;2694;48.954;8.928;2024-02-21T11:11:28;8.80;;;1.90;;
5343;SDS011;2694;48.954;8.928;2024-02-21T11:14:03;13.43;;;2.40;;
5343;SDS011;2694;48.954;8.928;2024-02-21T11:16:34;9.20;;;1.90;;
5343;SDS011;2694;48.954;8.928;2024-02-21T11:19:06;11.02;;;1.55;;
5343;SDS011;2694;48.954;8.928;2024-02-21T11:21:34;10.95;;;1.92;;
5343;SDS011;2694;48.954;8.928;2024-02-21T11:24:03;7.50;;;1.60;;
5343;SDS011;2694;48.954;8.928;2024-02-21T11:26:32;6.25;;;1.33;;
5343;SDS011;2694;48.954;8.928;2024-02-21T11:28:58;10.48;;;2.00;;
5343;SDS011;2694;48.954;8.928;2024-02-21T11:31:26;11.23;;;1.90;;
5343;SDS011;2694;48.954;8.928;2024-02-21T11:33:53;6.40;;;1.52;;
5343;SDS011;2694;48.954;8.928;2024-02-21T11:36:24;7.07;;;1.33;;
5343;SDS011;2694;48.954;8.928;2024-02-21T11:38:52;6.05;;;1.38;;
5343;SDS011;2694;48.954;8.928;2024-02-21T11:41:20;5.97;;;1.30;;
5343;SDS011;2694;48.954;8.928;2024-02-21T11:43:48;9.23;;;1.80;;
5343;SDS011;2694;48.954;8.928;2024-02-21T11:46:16;13.48;;;1.40;;
5343;SDS011;2694;48.954;8.928;2024-02-21T11:48:43;11.05;;;1.40;;
5343;SDS011;2694;48.954;8.928;2024-02-21T11:51:20;8.50;;;1.50;;
5343;SDS011;2694;48.954;8.928;2024-02-21T11:53:48;6.50;;;1.40;;
5343;SDS011;2694;48.954;8.928;2024-02-21T11:56:15;10.40;;;2.22;;
5343;SDS011;2694;48.954;8.928;2024-02-21T11:58:43;8.05;;;1.35;;
5343;SDS011;2694;48.954;8.928;2024-02-21T12:01:10;7.78;;;1.75;;
5343;SDS011;2694;48.954;8.928;2024-02-21T12:03:37;8.75;;;1.40;;
5343;SDS011;2694;48.954;8.928;2024-02-21T12:06:06;5.15;;;1.08;;
5343;SDS011;2694;48.954;8.928;2024-02-21T12:08:40;12.95;;;1.45;;
5343;SDS011;2694;48.954;8.928;2024-02-21T12:11:15;7.78;;;1.60;;
5343;SDS011;2694;48.954;8.928;2024-02-21T12:13:46;8.82;;;1.70;;
5343;SDS011;2694;48.954;8.928;2024-02-21T12:16:14;6.05;;;1.70;;
5343;SDS011;2694;48.954;8.928;2024-02-21T12:18:43;11.02;;;1.50;;
5343;SDS011;2694;48.954;8.928;2024-02-21T12:21:10;7.78;;;1.60;;
5343;SDS011;2694;48.954;8.928;2024-02-21T12:23:37;5.53;;;1.15;;
5343;SDS011;2694;48.954;8.928;2024-02-21T12:26:07;10.60;;;1.45;;
5343;SDS011;2694;48.954;8.928;2024-02-21T12:28:34;5.28;;;1.38;;
5343;SDS011;2694;48.954;8.928;2024-02-21T12:31:02;6.40;;;1.30;;
5343;SDS011;2694;48.954;8.928;2024-02-21T12:33:29;4.53;;;1.40;;
5343;SDS011;2694;48.954;8.928;2024-02-21T12:35:58;12.10;;;1.40;;
5343;SDS011;2694;48.954;8.928;2024-02-21T12:38:25;3.83;;;1.40;;
5343;SDS011;2694;48.954;8.928;2024-02-21T12:40:51;4.45;;;1.15;;
5343;SDS011;2694;48.954;8.928;2024-02-21T12:43:18;6.15;;;1.67;;
5343;SDS011;2694;48.954;8.928;2024-02-21T12:45:47;5.15;;;1.55;;
5343;SDS011;2694;48.954;8.928;2024-02-21T12:48:17;5.73;;;1.20;;
5343;SDS011;2694;48.954;8.928;2024-02-21T12:50:48;5.10;;;1.40;;
5343;SDS011;2694;48.954;8.928;2024-02-21T12:53:16;9.30;;;1.40;;
5343;SDS011;2694;48.954;8.928;2024-02-21T12:55:44;6.80;;;1.50;;
5343;SDS011;2694;48.954;8.928;2024-02-21T12:58:11;6.05;;;1.30;;
5343;SDS011;2694;48.954;8.928;2024-02-21T13:00:39;6.47;;;1.40;;
5343;SDS011;2694;48.954;8.928;2024-02-21T13:03:05;7.00;;;1.60;;
5343;SDS011;2694;48.954;8.928;2024-02-21T13:05:34;8.95;;;1.65;;
5343;SDS011;2694;48.954;8.928;2024-02-21T13:08:01;7.57;;;1.75;;
5343;SDS011;2694;48.954;8.928;2024-02-21T13:10:28;5.28;;;1.10;;
5343;SDS011;2694;48.954;8.928;2024-02-21T13:12:54;6.60;;;1.53;;
5343;SDS011;2694;48.954;8.928;2024-02-21T13:15:21;9.10;;;1.40;;
5343;SDS011;2694;48.954;8.928;2024-02-21T13:17:48;7.68;;;1.20;;
5343;SDS011;2694;48.954;8.928;2024-02-21T13:20:18;6.80;;;1.43;;
5343;SDS011;2694;48.954;8.928;2024-02-21T13:22:46;7.50;;;1.30;;
5343;SDS011;2694;48.954;8.928;2024-02-21T13:25:13;8.10;;;1.27;;
5343;SDS011;2694;48.954;8.928;2024-02-21T13:27:43;9.47;;;1.60;;
5343;SDS011;2694;48.954;8.928;2024-02-21T13:30:10;6.45;;;1.40;;
5343;SDS011;2694;48.954;8.928;2024-02-21T13:32:40;10.65;;;2.67;;
5343;SDS011;2694;48.954;8.928;2024-02-21T13:35:07;6.25;;;1.10;;
5343;SDS011;2694;48.954;8.928;2024-02-21T13:37:37;5.57;;;1.23;;
5343;SDS011;2694;48.954;8.928;2024-02-21T13:40:06;5.20;;;1.35;;
5343;SDS011;2694;48.954;8.928;2024-02-21T13:42:36;9.73;;;1.70;;
5343;SDS011;2694;48.954;8.928;2024-02-21T13:45:03;8.13;;;1.50;;
5343;SDS011;2694;48.954;8.928;2024-02-21T13:47:31;5.45;;;1.30;;
5343;SDS011;2694;48.954;8.928;2024-02-21T13:49:59;5.67;;;1.20;;
5343;SDS011;2694;48.954;8.928;2024-02-21T13:52:26;9.30;;;1.70;;
5343;SDS011;2694;48.954;8.928;2024-02-21T13:54:53;5.45;;;1.50;;
5343;SDS011;2694;48.954;8.928;2024-02-21T13:57:21;4.93;;;1.60;;
5343;SDS011;2694;48.954;8.928;2024-02-21T13:59:48;7.17;;;1.10;;
5343;SDS011;2694;48.954;8.928;2024-02-21T14:02:16;6.60;;;1.30;;
5343;SDS011;2694;48.954;8.928;2024-02-21T14:04:42;5.73;;;1.10;;
5343;SDS011;2694;48.954;8.928;2024-02-21T14:07:09;4.70;;;1.27;;
5343;SDS011;2694;48.954;8.928;2024-02-21T14:09:36;7.85;;;1.30;;
5343;SDS011;2694;48.954;8.928;2024-02-21T14:12:03;6.78;;;1.60;;
5343;SDS011;2694;48.954;8.928;2024-02-21T14:14:34;6.70;;;1.42;;
5343;SDS011;2694;48.954;8.928;2024-02-21T14:17:01;6.25;;;1.40;;
5343;SDS011;2694;48.954;8.928;2024-02-21T14:19:28;5.57;;;1.60;;
5343;SDS011;2694;48.954;8.928;2024-02-21T14:21:55;8.30;;;1.45;;
5343;SDS011;2694;48.954;8.928;2024-02-21T14:24:22;5.53;;;1.60;;
5343;SDS011;2694;48.954;8.928;2024-02-21T14:26:49;6.70;;;1.60;;
5343;SDS011;2694;48.954;8.928;2024-02-21T14:29:16;6.57;;;1.40;;
5343;SDS011;2694;48.954;8.928;2024-02-21T14:31:44;3.20;;;1.10;;
5343;SDS011;2694;48.954;8.928;2024-02-21T14:34:11;9.17;;;1.40;;
5343;SDS011;2694;48.954;8.928;2024-02-21T14:36:38;8.02;;;1.40;;
5343;SDS011;2694;48.954;8.928;2024-02-21T14:39:05;4.20;;;1.45;;
5343;SDS011;2694;48.954;8.928;2024-02-21T14:41:32;5.15;;;1.30;;
5343;SDS011;2694;48.954;8.928;2024-02-21T14:44:00;4.13;;;1.60;;
5343;SDS011;2694;48.954;8.928;2024-02-21T14:46:28;10.93;;;1.90;;
5343;SDS011;2694;48.954;8.928;2024-02-21T14:48:56;9.30;;;1.40;;
5343;SDS011;2694;48.954;8.928;2024-02-21T14:51:23;7.53;;;1.48;;
5343;SDS011;2694;48.954;8.928;2024-02-21T14:53:50;6.50;;;1.50;;
5343;SDS011;2694;48.954;8.928;2024-02-21T14:56:17;5.78;;;1.58;;
5343;SDS011;2694;48.954;8.928;2024-02-21T14:58:43;6.72;;;1.40;;
5343;SDS011;2694;48.954;8.928;2024-02-21T15:01:12;7.37;;;1.70;;
5343;SDS011;2694;48.954;8.928;2024-02-21T15:03:39;9.77;;;1.80;;
5343;SDS011;2694;48.954;8.928;2024-02-21T15:06:07;4.85;;;1.60;;
5343;SDS011;2694;48.954;8.928;2024-02-21T15:08:35;5.93;;;1.65;;
5343;SDS011;2694;48.954;8.928;2024-02-21T15:11:02;5.95;;;1.52;;
5343;SDS011;2694;48.954;8.928;2024-02-21T15:13:29;5.10;;;1.60;;
5343;SDS011;2694;48.954;8.928;2024-02-21T15:15:58;8.57;;;2.28;;